INFORMAÇÕES DO AERODROMO
Icao Aerodromo CYRV Nome do Aerodromo Revelstoke Airport Cidade Revelstoke
Código GPS CYRV Elevação Média 1459 ft Tipo de Aerodromo Aeroporto Médio Porte

INFORMAÇÃO DE PISTA
Pista 12 Comprimento da Pista 4800 ft Largura da Pista 75 ft
Elevação da Pista 1457 ft Distância de Area de Escape da Pista 0 ft Orientação da Pista 138
Pista 30 Comprimento da Pista 4800 ft Largura da Pista 75 ft
Elevação da Pista 1459 ft Distância de Area de Escape da Pista 300 ft Orientação da Pista 318

FREQUÊNCIAS DO AERODROMO
Tipo RCO Nome PACIFIC RD Frequência 126.7 MHZ
Tipo UNIC Nome ATF/UNICOM Frequência 122.8 MHZ

INFORMAÇÕES DE NAVEGAÇÃO PRÓXIMO AO AERODROMO

Informações de Meteorologia(METAR atual)
METAR DE CYRV
ADDS - METARS form results

(0531 UTC 05 June 2020)
Data provider http://aviationweather.gov/metar/data/
 
METAR text: CYRV 050500Z AUTO 32007KT 9SM CLR 10/06 A2997 RMK SLP157
Conditions at: CYRV (REVELSTOKE AIRPO, BC, CA) observed 0500 UTC 05 June 2020
Temperature: 10.0°C (50°F)
Dewpoint: 6.0°C (43°F) [RH = 76%]
Pressure (altimeter): 29.97 inches Hg (1015.0 mb)
[Sea-level pressure: 1015.7 mb]
Winds: from the NW (320 degrees) at 8 MPH (7 knots; 3.6 m/s)
Visibility: 9 miles (14 km)
Ceiling: at least 12,000 feet AGL
Clouds: sky clear below 12,000 feet AGL
Weather: no significant weather observed at this time

MAPA DO AERODROMO


Desenvolvido por Virtual Airlines Manager




Modificado por Servidor Brasil Amigos